createdAt,value
2019-05-20T04:00:44.398Z,80.00
2019-05-20T04:02:44.305Z,88.00
2019-05-20T04:05:00.620Z,104.00
2019-05-20T04:06:45.281Z,116.00
2019-05-20T04:08:44.243Z,128.00
2019-05-20T04:10:44.266Z,152.00
2019-05-20T04:12:44.206Z,144.00
2019-05-20T04:14:44.199Z,136.00
2019-05-20T04:16:44.177Z,132.00
2019-05-20T04:18:44.153Z,144.00
2019-05-20T04:20:44.134Z,164.00
2019-05-20T04:22:44.085Z,164.00
2019-05-20T04:24:44.075Z,152.00
2019-05-20T04:26:44.078Z,176.00
2019-05-20T04:28:44.088Z,160.00
2019-05-20T04:30:44.020Z,152.00
2019-05-20T04:32:44.021Z,152.00
2019-05-20T04:34:44.001Z,168.00
2019-05-20T04:36:43.940Z,168.00
2019-05-20T04:38:43.961Z,200.00
2019-05-20T04:40:43.926Z,216.00
2019-05-20T04:42:43.879Z,224.00
2019-05-20T04:44:43.872Z,240.00
2019-05-20T04:46:43.860Z,256.00
2019-05-20T04:48:43.821Z,248.00
2019-05-20T04:50:43.783Z,248.00
2019-05-20T04:52:43.878Z,252.00
2019-05-20T04:54:43.760Z,268.00
2019-05-20T04:56:43.742Z,300.00
2019-05-20T04:58:43.744Z,324.00
2019-05-20T05:00:43.787Z,364.00
2019-05-20T05:02:44.049Z,368.00
2019-05-20T05:04:43.651Z,396.00
2019-05-20T05:06:43.615Z,448.00
2019-05-20T05:08:43.686Z,500.00
2019-05-20T05:10:43.576Z,528.00
2019-05-20T05:12:43.587Z,532.00
2019-05-20T05:14:43.547Z,536.00
2019-05-20T05:16:43.551Z,532.00
2019-05-20T05:18:43.479Z,560.00
2019-05-20T05:20:43.485Z,608.00
2019-05-20T05:22:43.439Z,608.00
2019-05-20T05:24:43.470Z,656.00
2019-05-20T05:26:43.417Z,624.00
2019-05-20T05:28:43.373Z,588.00
2019-05-20T05:30:43.368Z,700.00
2019-05-20T05:32:44.367Z,724.00
2019-05-20T05:34:43.318Z,768.00
2019-05-20T05:36:43.303Z,824.00
2019-05-20T05:38:43.293Z,724.00
2019-05-20T05:40:43.339Z,644.00
2019-05-20T05:42:43.244Z,640.00
2019-05-20T05:44:43.223Z,684.00
2019-05-20T05:46:43.184Z,800.00
2019-05-20T05:48:43.213Z,1068.00
2019-05-20T05:50:43.140Z,1576.00
2019-05-20T05:52:43.128Z,1316.00
2019-05-20T05:54:43.097Z,1232.00
2019-05-20T05:56:43.130Z,1192.00
2019-05-20T05:58:43.068Z,1292.00
2019-05-20T06:00:43.028Z,1204.00
2019-05-20T06:02:43.011Z,1140.00
2019-05-20T06:04:43.136Z,1328.00
2019-05-20T06:06:42.998Z,1060.00
2019-05-20T06:08:42.969Z,924.00
2019-05-20T06:10:42.949Z,916.00
2019-05-20T06:12:42.973Z,916.00
2019-05-20T06:14:42.889Z,972.00
2019-05-20T06:16:42.866Z,1008.00
2019-05-20T06:18:42.835Z,1036.00
2019-05-20T06:20:42.832Z,1084.00
2019-05-20T06:22:42.793Z,1036.00
2019-05-20T06:24:42.769Z,1096.00
2019-05-20T06:26:42.760Z,1208.00
2019-05-20T06:28:42.793Z,1344.00
2019-05-20T06:30:42.722Z,1416.00
2019-05-20T06:32:42.715Z,1344.00
2019-05-20T06:34:43.225Z,1140.00
2019-05-20T06:36:42.800Z,1156.00
2019-05-20T06:38:42.633Z,1160.00
2019-05-20T06:40:42.649Z,1224.00
2019-05-20T06:42:42.587Z,1388.00
2019-05-20T06:44:52.266Z,1560.00
2019-05-20T06:46:43.595Z,1636.00
2019-05-20T06:48:42.542Z,1532.00
2019-05-20T06:50:42.488Z,1496.00
2019-05-20T06:52:42.495Z,1480.00
2019-05-20T06:54:42.457Z,1428.00
2019-05-20T06:56:42.609Z,1420.00
2019-05-20T06:58:42.403Z,1516.00
2019-05-20T07:00:42.392Z,1652.00
2019-05-20T07:02:42.375Z,1764.00
2019-05-20T07:04:42.347Z,1836.00
2019-05-20T07:06:46.667Z,1828.00
2019-05-20T07:08:43.292Z,1796.00
2019-05-20T07:10:42.284Z,1796.00
2019-05-20T07:12:42.294Z,1812.00
2019-05-20T07:14:42.326Z,1900.00
2019-05-20T07:16:42.211Z,2016.00
2019-05-20T07:18:42.296Z,2080.00
2019-05-20T07:20:42.193Z,1764.00
2019-05-20T07:22:55.408Z,1572.00
2019-05-20T07:24:43.144Z,1468.00
2019-05-20T07:26:42.124Z,1496.00
2019-05-20T07:28:42.094Z,1576.00
2019-05-20T07:30:42.053Z,1636.00
2019-05-20T07:32:42.029Z,1784.00
2019-05-20T07:34:42.110Z,2000.00
2019-05-20T07:36:42.018Z,1920.00
2019-05-20T07:38:42.005Z,1704.00
2019-05-20T07:40:41.947Z,1840.00
2019-05-20T07:42:42.009Z,2044.00
2019-05-20T07:44:41.914Z,2180.00
2019-05-20T07:46:41.885Z,2320.00
2019-05-20T07:48:41.879Z,2356.00
2019-05-20T07:50:41.885Z,2544.00
2019-05-20T07:52:41.814Z,2812.00
2019-05-20T07:54:41.817Z,2656.00
2019-05-20T07:56:41.781Z,2360.00
2019-05-20T07:58:41.869Z,2368.00
2019-05-20T08:00:41.792Z,2784.00
2019-05-20T08:02:41.736Z,2636.00
2019-05-20T08:04:41.697Z,2384.00
2019-05-20T08:06:41.788Z,2388.00
2019-05-20T08:08:41.677Z,2320.00
2019-05-20T08:10:41.644Z,2472.00
2019-05-20T08:12:41.613Z,2608.00
2019-05-20T08:14:41.594Z,2792.00
2019-05-20T08:16:41.566Z,2904.00
2019-05-20T08:18:41.548Z,2900.00
2019-05-20T08:20:41.528Z,2996.00
2019-05-20T08:22:41.533Z,3008.00
2019-05-20T08:24:41.500Z,2584.00
2019-05-20T08:26:41.448Z,2124.00
2019-05-20T08:28:41.467Z,2264.00
2019-05-20T08:30:41.414Z,2424.00
2019-05-20T08:32:41.428Z,2536.00
2019-05-20T08:34:41.420Z,2632.00
2019-05-20T08:36:41.353Z,2572.00
2019-05-20T08:38:41.322Z,2524.00
2019-05-20T08:40:41.330Z,2576.00
2019-05-20T08:42:41.345Z,2716.00
2019-05-20T08:44:41.298Z,2576.00
2019-05-20T08:46:41.272Z,2356.00
2019-05-20T08:48:41.291Z,2264.00
2019-05-20T08:50:41.237Z,2356.00
2019-05-20T08:52:41.205Z,2316.00
2019-05-20T08:54:41.166Z,2472.00
2019-05-20T08:56:41.127Z,2604.00
2019-05-20T08:58:41.228Z,2548.00
2019-05-20T09:00:41.111Z,2704.00
2019-05-20T09:02:41.105Z,3252.00
2019-05-20T09:04:41.037Z,3336.00
2019-05-20T09:06:41.095Z,3212.00
2019-05-20T09:08:41.058Z,3008.00
2019-05-20T09:10:40.979Z,3004.00
2019-05-20T09:12:40.963Z,2848.00
2019-05-20T09:14:40.964Z,3048.00
2019-05-20T09:16:40.913Z,3232.00
2019-05-20T09:18:40.917Z,3228.00
2019-05-20T09:20:40.941Z,3440.00
2019-05-20T09:22:40.908Z,3356.00
2019-05-20T09:24:40.949Z,3524.00
2019-05-20T09:26:40.808Z,3496.00
2019-05-20T09:28:40.795Z,3400.00
2019-05-20T09:30:40.779Z,3236.00
2019-05-20T09:32:42.948Z,3380.00
2019-05-20T09:34:40.729Z,3388.00
2019-05-20T09:36:40.711Z,3448.00
2019-05-20T09:38:40.687Z,3352.00
2019-05-20T09:40:40.710Z,3480.00
2019-05-20T09:42:41.284Z,3676.00
2019-05-20T09:44:40.636Z,3936.00
2019-05-20T09:46:40.624Z,3980.00
2019-05-20T09:48:40.565Z,4240.00
2019-05-20T09:50:40.623Z,4216.00
2019-05-20T09:52:40.554Z,4076.00
2019-05-20T09:54:40.521Z,4196.00
2019-05-20T09:56:40.484Z,4192.00
2019-05-20T09:58:40.547Z,4184.00
2019-05-20T10:00:40.450Z,4172.00
2019-05-20T10:02:40.425Z,4292.00
2019-05-20T10:04:40.397Z,4736.00
2019-05-20T10:06:40.399Z,5032.00
2019-05-20T10:08:44.798Z,4744.00
2019-05-20T10:10:40.326Z,4880.00
2019-05-20T10:12:46.557Z,4940.00
2019-05-20T10:14:41.305Z,4056.00
2019-05-20T10:16:40.260Z,3956.00
2019-05-20T10:18:40.256Z,4272.00
2019-05-20T10:20:40.278Z,3864.00
2019-05-20T10:22:40.195Z,3592.00
2019-05-20T10:24:40.179Z,3484.00
2019-05-20T10:26:40.260Z,3532.00
2019-05-20T10:28:41.865Z,4072.00
2019-05-20T10:30:40.130Z,4448.00
2019-05-20T10:32:40.099Z,4568.00
2019-05-20T10:34:40.123Z,4628.00
2019-05-20T10:36:40.067Z,4928.00
2019-05-20T10:38:56.926Z,4876.00
2019-05-20T10:40:41.087Z,4724.00
2019-05-20T10:42:40.010Z,4628.00
2019-05-20T10:44:41.973Z,4616.00
2019-05-20T10:46:39.943Z,4648.00
2019-05-20T10:48:39.999Z,4748.00
2019-05-20T10:50:39.910Z,4056.00
2019-05-20T10:52:39.915Z,3812.00
2019-05-20T10:54:39.883Z,3596.00
2019-05-20T10:56:39.838Z,3344.00
2019-05-20T10:58:39.813Z,3180.00
2019-05-20T11:00:39.797Z,3308.00
2019-05-20T11:02:39.845Z,3472.00
2019-05-20T11:04:39.779Z,3104.00
2019-05-20T11:06:39.755Z,3176.00
2019-05-20T11:08:39.699Z,3560.00
2019-05-20T11:10:39.771Z,3416.00
2019-05-20T11:12:39.683Z,3312.00
2019-05-20T11:14:39.654Z,3000.00
2019-05-20T11:16:39.627Z,2832.00
2019-05-20T11:18:39.685Z,2984.00
2019-05-20T11:20:39.586Z,3040.00
2019-05-20T11:22:39.567Z,3044.00
2019-05-20T11:24:39.536Z,3204.00
2019-05-20T11:26:39.584Z,3108.00
2019-05-20T11:28:39.529Z,3476.00
2019-05-20T11:30:39.468Z,3536.00
2019-05-20T11:32:39.456Z,3460.00
2019-05-20T11:34:39.473Z,3644.00
2019-05-20T11:36:39.417Z,3652.00
2019-05-20T11:38:39.406Z,3328.00
2019-05-20T11:40:39.358Z,3112.00
2019-05-20T11:42:39.390Z,2944.00
2019-05-20T11:44:39.331Z,2776.00
2019-05-20T11:46:39.309Z,2632.00
2019-05-20T11:48:39.283Z,2596.00
2019-05-20T11:50:39.299Z,2640.00
2019-05-20T11:52:39.254Z,2652.00
2019-05-20T11:54:39.262Z,2696.00
2019-05-20T11:56:39.186Z,2808.00
2019-05-20T11:58:39.225Z,2760.00
2019-05-20T12:00:39.143Z,2664.00
2019-05-20T12:02:39.184Z,2500.00
2019-05-20T12:04:39.117Z,2360.00
2019-05-20T12:06:39.094Z,2372.00
2019-05-20T12:08:39.064Z,2344.00
2019-05-20T12:10:39.075Z,2500.00
2019-05-20T12:12:39.048Z,2448.00
2019-05-20T12:14:39.011Z,2360.00
2019-05-20T12:16:38.973Z,2248.00
2019-05-20T12:18:38.994Z,2284.00
2019-05-20T12:20:38.953Z,2280.00
2019-05-20T12:22:39.009Z,2436.00
2019-05-20T12:24:38.882Z,2640.00
2019-05-20T12:26:38.979Z,2752.00
2019-05-20T12:28:38.885Z,2856.00
2019-05-20T12:30:38.857Z,2812.00
2019-05-20T12:32:38.833Z,2852.00
2019-05-20T12:34:38.815Z,3184.00
2019-05-20T12:36:38.758Z,3264.00
2019-05-20T12:38:38.813Z,3188.00
2019-05-20T12:40:38.733Z,3492.00
2019-05-20T12:42:38.737Z,3536.00
2019-05-20T12:44:38.673Z,3536.00
2019-05-20T12:46:38.714Z,3536.00
2019-05-20T12:48:38.648Z,3584.00
2019-05-20T12:50:38.611Z,3640.00
2019-05-20T12:52:38.610Z,3656.00
2019-05-20T12:54:38.647Z,3512.00
2019-05-20T12:56:38.547Z,3412.00
2019-05-20T12:58:38.574Z,3412.00
2019-05-20T13:00:38.546Z,3200.00
2019-05-20T13:02:38.493Z,3360.00
2019-05-20T13:04:38.462Z,3444.00
2019-05-20T13:06:38.451Z,3580.00
2019-05-20T13:08:38.410Z,3676.00
2019-05-20T13:10:38.405Z,3868.00
2019-05-20T13:12:38.403Z,4224.00
2019-05-20T13:14:38.361Z,4552.00
2019-05-20T13:16:38.336Z,4604.00
2019-05-20T13:18:38.315Z,4928.00
2019-05-20T13:20:38.306Z,5040.00
2019-05-20T13:22:38.266Z,5128.00
2019-05-20T13:24:38.289Z,5236.00
2019-05-20T13:26:38.232Z,5160.00
2019-05-20T13:28:38.206Z,4932.00
2019-05-20T13:30:38.417Z,4932.00
2019-05-20T13:32:38.155Z,5128.00
2019-05-20T13:34:38.148Z,5312.00
2019-05-20T13:36:38.147Z,5072.00
2019-05-20T13:38:38.101Z,4508.00
2019-05-20T13:40:46.590Z,4528.00
2019-05-20T13:42:39.078Z,4076.00
2019-05-20T13:44:38.023Z,3904.00
2019-05-20T13:46:38.070Z,3764.00
2019-05-20T13:48:38.031Z,3808.00
2019-05-20T13:50:37.955Z,3456.00
2019-05-20T13:52:37.985Z,3452.00
2019-05-20T13:54:37.939Z,3536.00
2019-05-20T13:56:37.951Z,3652.00
2019-05-20T13:58:37.876Z,3652.00
2019-05-20T14:00:37.906Z,3684.00
2019-05-20T14:02:37.886Z,3548.00
2019-05-20T14:04:37.817Z,3096.00
2019-05-20T14:06:37.840Z,2928.00
2019-05-20T14:08:37.777Z,2908.00
2019-05-20T14:10:37.811Z,2972.00
2019-05-20T14:12:37.723Z,2624.00
2019-05-20T14:14:37.713Z,2340.00
2019-05-20T14:16:37.751Z,2236.00
2019-05-20T14:18:37.667Z,2688.00
2019-05-20T14:20:37.656Z,2604.00
2019-05-20T14:22:37.619Z,2384.00
2019-05-20T14:24:37.648Z,2168.00
2019-05-20T14:26:37.589Z,2152.00
2019-05-20T14:28:37.571Z,2292.00
2019-05-20T14:30:37.533Z,2552.00
2019-05-20T14:32:37.503Z,2604.00
2019-05-20T14:34:37.556Z,2628.00
2019-05-20T14:36:40.011Z,2896.00
2019-05-20T14:38:37.448Z,2836.00
2019-05-20T14:40:37.442Z,3000.00
2019-05-20T14:42:37.439Z,2928.00
2019-05-20T14:44:37.382Z,2664.00
2019-05-20T14:46:37.452Z,2628.00
2019-05-20T14:48:37.415Z,2640.00
2019-05-20T14:50:37.336Z,2752.00
2019-05-20T14:52:37.301Z,2712.00
2019-05-20T14:54:37.355Z,2784.00
2019-05-20T14:56:37.340Z,2500.00
2019-05-20T14:58:37.236Z,2448.00
2019-05-20T15:00:37.201Z,2340.00
2019-05-20T15:02:37.251Z,2256.00
2019-05-20T15:04:37.193Z,2172.00
2019-05-20T15:06:37.175Z,1976.00
2019-05-20T15:08:37.117Z,2040.00
2019-05-20T15:10:37.117Z,2080.00
2019-05-20T15:12:37.076Z,1956.00
2019-05-20T15:14:37.115Z,2032.00
2019-05-20T15:16:37.028Z,1912.00
2019-05-20T15:18:37.060Z,1900.00
2019-05-20T15:20:37.030Z,2200.00
2019-05-20T15:22:36.963Z,2088.00
2019-05-20T15:24:36.965Z,2056.00
2019-05-20T15:26:37.013Z,2136.00
2019-05-20T15:28:36.916Z,2088.00
2019-05-20T15:30:36.892Z,2072.00
2019-05-20T15:32:36.936Z,1840.00
2019-05-20T15:34:36.835Z,1812.00
2019-05-20T15:36:36.836Z,1776.00
2019-05-20T15:38:36.833Z,1892.00
2019-05-20T15:40:36.788Z,1832.00
2019-05-20T15:42:36.829Z,1724.00
2019-05-20T15:44:36.731Z,1988.00
2019-05-20T15:46:36.731Z,1860.00
2019-05-20T15:48:36.702Z,1928.00
2019-05-20T15:50:36.662Z,2036.00
2019-05-20T15:52:37.181Z,2024.00
2019-05-20T15:54:36.658Z,2144.00
2019-05-20T15:56:36.619Z,2404.00
2019-05-20T15:58:36.579Z,2444.00
2019-05-20T16:00:36.615Z,2304.00
2019-05-20T16:02:36.548Z,2264.00
2019-05-20T16:04:36.571Z,1972.00
2019-05-20T16:06:36.496Z,1888.00
2019-05-20T16:08:36.486Z,1608.00
2019-05-20T16:10:36.486Z,1504.00
2019-05-20T16:12:36.564Z,1412.00
2019-05-20T16:14:36.420Z,1424.00
2019-05-20T16:16:36.420Z,1544.00
2019-05-20T16:18:36.387Z,1584.00
2019-05-20T16:20:36.381Z,1720.00
2019-05-20T16:22:36.393Z,1584.00
2019-05-20T16:24:36.304Z,1468.00
2019-05-20T16:26:36.291Z,1448.00
2019-05-20T16:28:36.257Z,1508.00
2019-05-20T16:30:36.307Z,1536.00
2019-05-20T16:32:36.223Z,1780.00
2019-05-20T16:34:36.209Z,2108.00
2019-05-20T16:36:36.247Z,2096.00
2019-05-20T16:38:36.155Z,2128.00
2019-05-20T16:40:36.159Z,1888.00
2019-05-20T16:42:36.158Z,1576.00
2019-05-20T16:44:36.086Z,1524.00
2019-05-20T16:46:36.096Z,1376.00
2019-05-20T16:48:36.054Z,1192.00
2019-05-20T16:50:36.025Z,1188.00
2019-05-20T16:52:36.017Z,1132.00
2019-05-20T16:54:35.994Z,1032.00
2019-05-20T16:56:36.018Z,924.00
2019-05-20T16:58:35.954Z,848.00
2019-05-20T17:00:35.918Z,808.00
2019-05-20T17:02:35.915Z,796.00
2019-05-20T17:04:35.913Z,740.00
2019-05-20T17:06:35.859Z,776.00
2019-05-20T17:08:35.903Z,732.00
2019-05-20T17:10:35.808Z,620.00
2019-05-20T17:12:35.803Z,596.00
2019-05-20T17:14:35.797Z,596.00
2019-05-20T17:16:35.760Z,640.00
2019-05-20T17:18:35.714Z,712.00
2019-05-20T17:20:35.827Z,684.00
2019-05-20T17:22:35.717Z,596.00
2019-05-20T17:24:35.655Z,584.00
2019-05-20T17:26:35.651Z,608.00
2019-05-20T17:28:35.677Z,656.00
2019-05-20T17:30:44.963Z,672.00
2019-05-20T17:32:36.618Z,676.00
2019-05-20T17:34:35.562Z,632.00
2019-05-20T17:36:35.551Z,632.00
2019-05-20T17:38:35.545Z,624.00
2019-05-20T17:40:35.505Z,624.00
2019-05-20T17:42:35.548Z,624.00
2019-05-20T17:44:35.505Z,644.00
2019-05-20T17:46:35.511Z,588.00
2019-05-20T17:48:35.453Z,568.00
2019-05-20T17:50:35.426Z,576.00
2019-05-20T17:52:35.367Z,548.00
2019-05-20T17:54:35.334Z,544.00
2019-05-20T17:56:35.347Z,584.00
2019-05-20T17:58:37.347Z,552.00
2019-05-20T18:00:35.316Z,480.00
2019-05-20T18:02:35.269Z,412.00
2019-05-20T18:04:35.225Z,380.00
2019-05-20T18:06:35.219Z,364.00
2019-05-20T18:08:35.204Z,364.00
2019-05-20T18:10:35.164Z,328.00
2019-05-20T18:12:35.150Z,328.00
2019-05-20T18:14:35.140Z,308.00
2019-05-20T18:16:35.107Z,332.00
2019-05-20T18:18:35.082Z,356.00
2019-05-20T18:20:35.116Z,360.00
2019-05-20T18:22:35.041Z,332.00
2019-05-20T18:24:35.047Z,304.00
2019-05-20T18:26:34.997Z,272.00
2019-05-20T18:28:34.997Z,244.00
2019-05-20T18:30:34.959Z,224.00
2019-05-20T18:32:34.956Z,196.00
2019-05-20T18:34:34.897Z,168.00
2019-05-20T18:36:34.969Z,160.00
2019-05-20T18:38:34.900Z,160.00
2019-05-20T18:40:34.847Z,160.00
2019-05-20T18:42:34.853Z,156.00
2019-05-20T18:44:34.792Z,156.00
2019-05-20T18:46:34.779Z,140.00
2019-05-20T18:48:34.768Z,112.00
2019-05-20T18:50:34.751Z,104.00
2019-05-20T18:52:34.737Z,88.00
2019-05-20T18:54:34.697Z,80.00
2019-05-20T18:56:34.694Z,76.00
2019-05-20T18:58:34.693Z,64.00
2019-05-20T19:00:34.619Z,60.00
2019-05-20T19:02:34.678Z,56.00
2019-05-20T19:04:34.578Z,52.00
2019-05-20T19:06:34.554Z,48.00
2019-05-20T19:08:34.584Z,44.00
2019-05-20T19:10:34.574Z,44.00
2019-05-20T19:12:34.527Z,32.00
2019-05-20T19:14:34.506Z,32.00
2019-05-20T19:16:34.483Z,28.00
2019-05-20T19:18:34.461Z,24.00
2019-05-20T19:20:34.417Z,20.00
2019-05-20T19:22:34.394Z,20.00
2019-05-20T19:24:34.395Z,20.00
2019-05-20T19:26:34.334Z,16.00
2019-05-20T19:28:34.313Z,16.00
2019-05-20T19:30:34.324Z,12.00
2019-05-20T19:32:34.276Z,8.00
2019-05-20T19:34:34.255Z,8.00
2019-05-20T19:36:34.242Z,4.00
2019-05-20T19:38:35.012Z,0.00
2019-05-20T19:40:34.221Z,0.00
2019-05-20T19:42:34.206Z,0.00
2019-05-20T19:44:34.192Z,4.00
2019-05-20T19:46:34.146Z,0.00
2019-05-20T19:48:34.145Z,0.00
2019-05-20T19:50:34.085Z,0.00
2019-05-20T19:52:34.068Z,0.00
2019-05-20T19:54:34.100Z,0.00
2019-05-20T19:56:34.056Z,0.00
2019-05-20T19:58:34.031Z,0.00
2019-05-20T20:00:33.976Z,0.00
2019-05-20T20:02:33.952Z,0.00
2019-05-20T20:04:33.996Z,0.00
2019-05-20T20:06:33.905Z,0.00
2019-05-20T20:08:33.938Z,0.00
2019-05-20T20:10:33.893Z,0.00
2019-05-20T20:12:33.848Z,0.00
2019-05-20T20:14:33.868Z,0.00
2019-05-20T20:16:33.803Z,0.00
2019-05-20T20:18:33.830Z,0.00
2019-05-20T20:20:33.760Z,0.00
2019-05-20T20:22:33.770Z,0.00
2019-05-20T20:24:33.718Z,0.00
2019-05-20T20:26:33.700Z,0.00
2019-05-20T20:28:33.677Z,0.00
2019-05-20T20:30:33.643Z,0.00
2019-05-20T20:32:37.834Z,0.00
2019-05-20T20:34:33.596Z,0.00
2019-05-20T20:36:33.605Z,0.00
2019-05-20T20:38:33.607Z,0.00
2019-05-20T20:40:33.543Z,0.00
2019-05-20T20:42:33.686Z,0.00
2019-05-20T20:44:33.665Z,0.00
2019-05-20T20:46:33.543Z,0.00
2019-05-20T20:48:33.532Z,0.00
2019-05-20T20:50:33.509Z,0.00
2019-05-20T20:52:33.462Z,0.00
2019-05-20T20:54:33.421Z,0.00
2019-05-20T20:56:34.273Z,0.00
2019-05-20T20:58:33.348Z,0.00
2019-05-20T21:00:33.331Z,0.00
2019-05-20T21:02:33.290Z,0.00
2019-05-20T21:04:33.283Z,0.00
2019-05-20T21:06:33.282Z,0.00
2019-05-20T21:08:33.229Z,0.00
2019-05-20T21:10:33.212Z,0.00
2019-05-20T21:12:33.200Z,0.00
2019-05-20T21:14:33.176Z,0.00
2019-05-20T21:16:33.154Z,0.00
2019-05-20T21:18:33.146Z,0.00
2019-05-20T21:20:33.106Z,0.00
2019-05-20T21:22:33.092Z,0.00
2019-05-20T21:24:33.050Z,0.00
2019-05-20T21:26:33.045Z,0.00
2019-05-20T21:28:33.017Z,0.00
2019-05-20T21:30:32.997Z,0.00
2019-05-20T21:32:32.967Z,0.00
2019-05-20T21:34:33.025Z,0.00
2019-05-20T21:36:46.594Z,0.00
2019-05-20T21:38:33.909Z,0.00
2019-05-20T21:40:32.909Z,0.00
2019-05-20T21:42:32.887Z,0.00
2019-05-20T21:44:32.866Z,0.00
2019-05-20T21:46:32.819Z,0.00
2019-05-20T21:48:32.789Z,0.00
2019-05-20T21:50:32.777Z,0.00
2019-05-20T21:52:32.769Z,0.00
2019-05-20T21:54:32.728Z,0.00
2019-05-20T21:56:32.769Z,0.00
2019-05-20T21:58:32.701Z,0.00
2019-05-20T22:00:32.681Z,0.00
2019-05-20T22:02:32.648Z,0.00
2019-05-20T22:04:32.613Z,0.00
2019-05-20T22:06:32.621Z,0.00
2019-05-20T22:08:32.580Z,0.00
2019-05-20T22:10:32.563Z,0.00
2019-05-20T22:12:32.538Z,0.00
2019-05-20T22:14:32.516Z,0.00
2019-05-20T22:16:32.489Z,0.00
2019-05-20T22:18:32.478Z,0.00
2019-05-20T22:20:32.498Z,0.00
2019-05-20T22:22:39.473Z,0.00
2019-05-20T22:24:32.396Z,0.00
2019-05-20T22:26:32.374Z,0.00
2019-05-20T22:28:32.379Z,0.00
2019-05-20T22:30:32.336Z,0.00
2019-05-20T22:32:32.345Z,0.00
2019-05-20T22:34:32.338Z,0.00
2019-05-20T22:36:32.275Z,0.00
2019-05-20T22:38:32.260Z,0.00
2019-05-20T22:40:32.242Z,0.00
2019-05-20T22:42:32.206Z,0.00
2019-05-20T22:44:32.191Z,0.00
2019-05-20T22:46:32.205Z,0.00
2019-05-20T22:48:32.162Z,0.00
2019-05-20T22:50:32.147Z,0.00
2019-05-20T22:52:32.107Z,0.00
2019-05-20T22:54:32.089Z,0.00
2019-05-20T22:56:32.060Z,0.00
2019-05-20T22:58:32.044Z,0.00
2019-05-20T23:00:32.023Z,0.00
2019-05-20T23:02:31.987Z,0.00
2019-05-20T23:04:31.982Z,0.00
2019-05-20T23:06:31.958Z,0.00
2019-05-20T23:08:31.942Z,0.00
2019-05-20T23:10:31.954Z,0.00
2019-05-20T23:12:31.876Z,0.00
2019-05-20T23:14:31.868Z,0.00
2019-05-20T23:16:31.862Z,0.00
2019-05-20T23:18:31.830Z,0.00
2019-05-20T23:20:31.814Z,0.00
2019-05-20T23:22:31.813Z,0.00
2019-05-20T23:24:31.767Z,0.00
2019-05-20T23:26:31.788Z,0.00
2019-05-20T23:28:31.738Z,0.00
